Time;durP1;ratioP1;P1;durP2;ratioP2;P2;SDS_P1;SDS_P2;PMS_P1;PMS_P2;Temp;Humidity;BMP_temperature;BMP_pressure;BME280_temperature;BME280_humidity;BME280_pressure;Samples;Min_cycle;Max_cycle;Signal;HPM_P1;HPM_P2
2023/04/22 00:00:34;;;;;;;1.83;1.60;;;12.90;56.50;;;;;;5066188;28;20213;-67
2023/04/22 00:03:03;;;;;;;2.67;1.70;;;12.90;56.60;;;;;;5074004;28;20209;-66
2023/04/22 00:05:32;;;;;;;3.23;1.53;;;12.80;56.60;;;;;;5066938;28;20197;-67
2023/04/22 00:07:59;;;;;;;2.93;2.00;;;12.80;56.70;;;;;;5087854;28;20261;-68
2023/04/22 00:10:27;;;;;;;3.10;1.70;;;12.80;56.70;;;;;;5090059;28;20268;-68
2023/04/22 00:12:54;;;;;;;2.43;2.10;;;12.70;56.70;;;;;;5064147;28;20249;-67
2023/04/22 00:15:21;;;;;;;2.97;2.13;;;12.70;56.80;;;;;;5087073;28;20301;-67
2023/04/22 00:17:48;;;;;;;2.93;2.23;;;12.70;56.90;;;;;;5084162;28;20189;-67
2023/04/22 00:20:15;;;;;;;3.70;2.47;;;12.70;57.00;;;;;;5076623;28;20196;-67
2023/04/22 00:22:44;;;;;;;2.77;2.10;;;12.70;57.00;;;;;;5088502;28;20303;-67
2023/04/22 00:25:11;;;;;;;4.80;2.33;;;12.70;57.10;;;;;;5085316;28;20199;-67
2023/04/22 00:27:38;;;;;;;2.50;2.30;;;12.70;57.20;;;;;;5077069;28;20609;-66
2023/04/22 00:30:06;;;;;;;4.40;2.90;;;12.70;57.30;;;;;;5085230;28;20201;-68
2023/04/22 00:32:33;;;;;;;5.10;2.80;;;12.70;57.50;;;;;;5084454;28;20411;-68
2023/04/22 00:35:00;;;;;;;4.43;2.60;;;12.60;57.50;;;;;;5083625;28;20197;-68
2023/04/22 00:37:28;;;;;;;4.63;2.80;;;12.60;57.50;;;;;;5061026;28;20193;-67
2023/04/22 00:39:57;;;;;;;4.63;2.30;;;12.60;57.60;;;;;;5080662;28;20675;-68
2023/04/22 00:42:25;;;;;;;3.20;2.30;;;12.60;57.70;;;;;;5078563;28;20265;-67
2023/04/22 00:44:52;;;;;;;2.80;2.27;;;12.60;57.70;;;;;;5067911;28;20201;-68
2023/04/22 00:47:20;;;;;;;4.50;2.07;;;12.60;57.80;;;;;;5065102;28;20193;-68
2023/04/22 00:49:49;;;;;;;3.03;2.33;;;12.60;57.90;;;;;;5089593;28;20200;-66
2023/04/22 00:52:16;;;;;;;3.53;2.50;;;12.60;58.10;;;;;;5064528;28;20256;-67
2023/04/22 00:54:43;;;;;;;2.60;2.10;;;12.60;58.10;;;;;;5070699;28;20650;-67
2023/04/22 00:57:11;;;;;;;8.53;2.00;;;12.60;58.20;;;;;;5077739;28;20200;-68
2023/04/22 00:59:39;;;;;;;3.73;1.80;;;12.50;58.20;;;;;;5081116;28;20702;-67
2023/04/22 01:02:06;;;;;;;2.20;1.60;;;12.60;58.30;;;;;;5066618;28;20196;-67
2023/04/22 01:04:35;;;;;;;3.03;1.73;;;12.50;58.30;;;;;;5064737;28;20237;-67
2023/04/22 01:07:02;;;;;;;2.20;2.00;;;12.50;58.30;;;;;;5073279;28;20274;-66
2023/04/22 01:09:29;;;;;;;2.20;2.00;;;12.60;58.60;;;;;;5089522;28;20340;-65
2023/04/22 01:11:56;;;;;;;2.03;1.70;;;12.50;59.20;;;;;;5082664;28;20329;-67
2023/04/22 01:14:25;;;;;;;2.33;2.10;;;12.50;58.70;;;;;;5067865;28;20220;-66
2023/04/22 01:16:53;;;;;;;2.47;1.73;;;12.40;58.70;;;;;;5065987;28;20549;-67
2023/04/22 01:19:21;;;;;;;2.30;2.10;;;12.40;58.80;;;;;;5074267;28;20566;-66
2023/04/22 01:21:50;;;;;;;1.70;1.60;;;11.70;58.30;;;;;;5081492;28;20275;-66
2023/04/22 01:24:19;;;;;;;1.93;1.83;;;12.30;58.90;;;;;;5087085;28;20184;-67
2023/04/22 01:26:47;;;;;;;1.77;1.67;;;12.40;59.00;;;;;;5069255;28;20204;-67
2023/04/22 01:29:14;;;;;;;2.93;1.90;;;12.40;59.00;;;;;;5058781;28;20640;-67
2023/04/22 01:31:42;;;;;;;2.00;1.80;;;12.40;59.00;;;;;;5079624;28;20199;-67
2023/04/22 01:34:10;;;;;;;2.33;1.90;;;12.40;59.20;;;;;;5073803;28;20258;-67
2023/04/22 01:36:38;;;;;;;3.77;1.97;;;12.40;59.30;;;;;;5079544;28;20200;-66
2023/04/22 01:39:06;;;;;;;3.10;2.30;;;12.40;59.50;;;;;;5073200;28;20549;-66
2023/04/22 01:41:34;;;;;;;4.97;2.37;;;12.30;59.50;;;;;;5077898;28;20198;-66
2023/04/22 01:44:03;;;;;;;2.70;2.00;;;12.30;59.60;;;;;;5065437;28;20556;-67
2023/04/22 01:46:30;;;;;;;3.03;2.07;;;12.30;59.60;;;;;;5090120;28;20300;-66
2023/04/22 01:48:57;;;;;;;2.00;1.80;;;12.30;59.70;;;;;;5087937;28;20199;-66
2023/04/22 01:51:24;;;;;;;1.73;1.60;;;12.20;59.60;;;;;;5083118;28;20247;-67
2023/04/22 01:53:52;;;;;;;1.97;1.67;;;12.20;59.40;;;;;;5074651;28;20215;-66
2023/04/22 01:56:19;;;;;;;1.60;1.50;;;12.20;59.40;;;;;;5069593;28;20261;-67
2023/04/22 01:58:48;;;;;;;2.40;1.90;;;12.20;59.30;;;;;;5063900;28;20212;-67
2023/04/22 02:01:15;;;;;;;1.97;1.80;;;12.10;59.20;;;;;;5081569;28;20627;-65
2023/04/22 02:03:42;;;;;;;2.10;1.90;;;12.20;59.20;;;;;;5082144;28;20200;-67
2023/04/22 02:06:11;;;;;;;2.53;1.70;;;12.10;59.10;;;;;;5062474;28;20650;-67
2023/04/22 02:08:38;;;;;;;2.10;1.87;;;12.10;59.10;;;;;;5082675;28;20576;-67
2023/04/22 02:11:05;;;;;;;2.53;1.80;;;12.00;59.10;;;;;;5056825;28;20209;-67
2023/04/22 02:13:36;;;;;;;1.70;1.60;;;12.00;59.10;;;;;;5080347;28;20299;-67
2023/04/22 02:16:05;;;;;;;1.77;1.67;;;12.00;59.10;;;;;;5062148;28;20217;-67
2023/04/22 02:18:32;;;;;;;2.60;1.67;;;11.90;59.60;;;;;;5061003;28;20604;-67
2023/04/22 02:20:59;;;;;;;2.67;2.00;;;12.00;59.10;;;;;;5080311;28;20247;-65
2023/04/22 02:23:27;;;;;;;2.10;1.73;;;12.00;59.10;;;;;;5083819;28;20196;-66
2023/04/22 02:25:55;;;;;;;4.03;1.67;;;12.00;59.20;;;;;;5076956;28;20477;-67
2023/04/22 02:28:23;;;;;;;3.50;2.20;;;12.00;59.20;;;;;;5086207;28;20251;-67
2023/04/22 02:30:50;;;;;;;2.50;1.97;;;12.00;59.20;;;;;;5081815;28;20668;-67
2023/04/22 02:33:18;;;;;;;2.30;2.07;;;11.90;59.10;;;;;;5083517;28;20692;-66
2023/04/22 02:35:45;;;;;;;2.33;1.80;;;11.90;59.10;;;;;;5086932;28;20215;-66
2023/04/22 02:38:18;;;;;;;2.47;1.90;;;12.00;59.30;;;;;;5071744;28;20193;-67
2023/04/22 02:40:45;;;;;;;2.30;2.10;;;11.90;59.20;;;;;;5066405;28;20651;-67
2023/04/22 02:43:12;;;;;;;2.37;2.17;;;11.90;59.20;;;;;;5084658;28;20244;-66
2023/04/22 02:45:40;;;;;;;2.37;2.07;;;11.90;59.30;;;;;;5089887;28;20191;-65
2023/04/22 02:48:07;;;;;;;2.50;2.00;;;11.90;59.30;;;;;;5071134;28;20227;-67
2023/04/22 02:50:37;;;;;;;1.97;1.87;;;11.90;59.40;;;;;;5065646;28;20196;-66
2023/04/22 02:53:05;;;;;;;2.63;2.20;;;11.90;59.40;;;;;;5067661;28;20295;-67
2023/04/22 02:55:32;;;;;;;2.97;2.00;;;11.90;59.30;;;;;;5069267;28;20212;-67
2023/04/22 02:57:59;;;;;;;2.20;2.00;;;12.00;59.40;;;;;;5071329;28;20291;-67
2023/04/22 03:00:26;;;;;;;4.43;2.20;;;11.90;59.40;;;;;;5062847;28;20558;-67
2023/04/22 03:02:55;;;;;;;2.10;1.90;;;11.90;59.50;;;;;;5063049;28;20216;-66
2023/04/22 03:05:26;;;;;;;3.83;2.43;;;11.80;60.20;;;;;;5092018;28;20185;-67
2023/04/22 03:07:55;;;;;;;2.87;2.37;;;11.90;59.60;;;;;;5059053;28;20246;-67
2023/04/22 03:10:22;;;;;;;2.60;2.37;;;11.80;59.60;;;;;;5060383;28;20202;-67
2023/04/22 03:12:51;;;;;;;4.53;3.33;;;11.80;59.60;;;;;;5075374;28;20205;-67
2023/04/22 03:15:18;;;;;;;3.37;2.60;;;11.80;59.60;;;;;;5067052;28;20276;-67
2023/04/22 03:17:45;;;;;;;3.30;2.20;;;11.80;59.60;;;;;;5059371;28;20197;-68
2023/04/22 03:20:15;;;;;;;2.57;2.30;;;11.70;59.60;;;;;;5068143;28;20200;-68
2023/04/22 03:22:42;;;;;;;3.67;2.60;;;11.70;59.80;;;;;;5068508;28;20204;-68
2023/04/22 03:25:13;;;;;;;3.03;2.40;;;11.70;59.80;;;;;;5063679;28;20205;-68
2023/04/22 03:27:40;;;;;;;2.67;2.10;;;11.70;59.90;;;;;;5067055;28;20264;-68
2023/04/22 03:30:08;;;;;;;3.33;2.40;;;11.70;60.00;;;;;;5066134;28;20205;-68
2023/04/22 03:32:35;;;;;;;5.50;2.50;;;11.70;60.20;;;;;;5063251;28;20261;-68
2023/04/22 03:35:23;;;;;;;4.40;2.97;;;11.60;60.30;;;;;;5061701;28;20213;-68
2023/04/22 03:37:52;;;;;;;4.33;2.70;;;11.60;60.40;;;;;;5054377;28;20276;-68
2023/04/22 03:40:26;;;;;;;3.40;2.77;;;11.60;60.50;;;;;;5082896;28;20289;-68
2023/04/22 03:42:54;;;;;;;6.20;2.93;;;11.60;60.50;;;;;;5062418;28;20189;-68
2023/04/22 03:45:22;;;;;;;3.57;2.60;;;11.50;60.50;;;;;;5069044;28;20255;-68
2023/04/22 03:48:01;;;;;;;3.97;2.57;;;11.60;60.70;;;;;;5061435;28;20213;-67
2023/04/22 03:50:37;;;;;;;4.30;2.73;;;11.60;60.60;;;;;;5063520;28;20227;-68
2023/04/22 03:53:04;;;;;;;4.17;2.70;;;11.60;60.70;;;;;;5061738;28;20611;-68
2023/04/22 03:55:33;;;;;;;2.73;2.50;;;11.60;60.70;;;;;;5058511;28;20209;-68
2023/04/22 03:58:01;;;;;;;2.73;2.27;;;11.60;60.70;;;;;;5066120;28;20204;-68
2023/04/22 04:00:28;;;;;;;2.50;2.30;;;11.60;60.80;;;;;;5060865;28;20201;-68
2023/04/22 04:03:07;;;;;;;3.53;2.60;;;11.60;60.90;;;;;;5062570;28;20189;-68
2023/04/22 04:05:35;;;;;;;3.87;2.70;;;11.60;61.20;;;;;;5060102;28;20502;-68
2023/04/22 04:08:02;;;;;;;3.83;2.80;;;11.50;61.30;;;;;;5078119;28;20250;-68
2023/04/22 04:10:29;;;;;;;3.50;2.33;;;11.50;61.40;;;;;;5079518;28;20215;-68
2023/04/22 04:13:00;;;;;;;4.50;2.47;;;11.50;61.50;;;;;;5060480;28;20287;-68
2023/04/22 04:15:32;;;;;;;2.83;2.07;;;10.80;60.80;;;;;;5064695;28;20569;-68
2023/04/22 04:18:01;;;;;;;3.77;2.50;;;11.50;61.70;;;;;;5068062;28;20196;-68
2023/04/22 04:20:31;;;;;;;3.37;2.03;;;11.50;61.80;;;;;;5062732;28;20226;-68
2023/04/22 04:22:59;;;;;;;4.63;2.27;;;11.50;62.00;;;;;;5067994;28;20197;-67
2023/04/22 04:25:28;;;;;;;4.53;2.50;;;11.50;62.20;;;;;;5071517;28;20291;-68
2023/04/22 04:27:55;;;;;;;4.53;2.50;;;11.50;62.50;;;;;;5068861;28;20264;-68
2023/04/22 04:30:24;;;;;;;3.10;2.10;;;11.50;62.60;;;;;;5096135;28;20268;-68
2023/04/22 04:32:54;;;;;;;2.77;2.13;;;11.60;62.80;;;;;;5071967;28;20187;-68
2023/04/22 04:35:22;;;;;;;4.37;2.30;;;11.60;62.90;;;;;;5070753;28;20302;-68
2023/04/22 04:37:55;;;;;;;3.70;2.13;;;11.60;62.90;;;;;;5062731;28;20225;-67
2023/04/22 04:40:23;;;;;;;4.53;2.00;;;11.70;63.10;;;;;;5067675;28;20291;-68
2023/04/22 04:43:07;;;;;;;2.63;1.87;;;11.70;63.10;;;;;;5063316;28;20196;-68
2023/04/22 04:45:45;;;;;;;2.70;2.10;;;11.80;64.10;;;;;;5064289;28;20187;-68
2023/04/22 04:48:13;;;;;;;2.50;2.00;;;11.90;63.60;;;;;;5063875;28;20222;-68
2023/04/22 04:50:43;;;;;;;2.83;2.03;;;11.90;63.60;;;;;;5061956;28;20284;-68
2023/04/22 04:53:11;;;;;;;2.50;2.00;;;11.90;63.70;;;;;;5070556;28;20668;-68
2023/04/22 04:55:41;;;;;;;2.10;1.67;;;12.00;63.90;;;;;;5059906;28;20776;-68
2023/04/22 04:58:16;;;;;;;2.03;1.80;;;12.00;63.90;;;;;;5070399;28;20303;-68
2023/04/22 05:00:44;;;;;;;5.37;2.13;;;12.10;64.20;;;;;;5066113;28;20204;-68
2023/04/22 05:03:12;;;;;;;2.03;1.83;;;12.20;64.50;;;;;;5068472;28;20672;-68
2023/04/22 05:05:39;;;;;;;1.87;1.73;;;12.20;64.70;;;;;;5071127;28;20636;-68
2023/04/22 05:08:07;;;;;;;3.00;2.00;;;12.20;65.00;;;;;;5070708;28;20240;-68
2023/04/22 05:10:36;;;;;;;2.00;1.73;;;12.20;65.20;;;;;;5062072;28;20280;-67
2023/04/22 05:13:04;;;;;;;1.70;1.60;;;12.20;65.40;;;;;;5066148;28;20285;-68
2023/04/22 05:15:32;;;;;;;2.93;1.70;;;12.30;65.60;;;;;;5058597;28;20225;-68
2023/04/22 05:18:01;;;;;;;4.40;1.73;;;12.30;65.90;;;;;;5074295;28;20195;-68
2023/04/22 05:20:28;;;;;;;1.73;1.63;;;12.40;66.00;;;;;;5061241;28;20219;-68
2023/04/22 05:22:56;;;;;;;1.60;1.43;;;12.40;65.90;;;;;;5091769;28;20694;-68
2023/04/22 05:25:23;;;;;;;1.47;1.37;;;12.50;66.10;;;;;;5066049;28;20229;-68
2023/04/22 05:27:58;;;;;;;1.60;1.40;;;12.50;66.20;;;;;;5069013;28;20246;-68
2023/04/22 05:30:29;;;;;;;1.93;1.23;;;12.60;66.20;;;;;;5066553;28;20285;-68
2023/04/22 05:32:56;;;;;;;3.30;1.30;;;12.60;66.20;;;;;;5063946;28;20520;-68
2023/04/22 05:35:24;;;;;;;2.33;1.60;;;12.70;66.30;;;;;;5085886;28;20560;-68
2023/04/22 05:37:51;;;;;;;5.90;1.53;;;12.80;66.30;;;;;;5062586;28;20279;-68
2023/04/22 05:40:19;;;;;;;1.60;1.50;;;12.80;66.20;;;;;;5083341;28;20204;-68
2023/04/22 05:42:46;;;;;;;3.13;1.67;;;12.90;66.30;;;;;;5067736;28;20200;-68
2023/04/22 05:45:14;;;;;;;2.70;1.57;;;12.90;66.20;;;;;;5087171;28;20616;-66
2023/04/22 05:47:41;;;;;;;4.40;1.60;;;13.00;66.30;;;;;;5067040;28;20199;-67
2023/04/22 05:50:09;;;;;;;5.50;1.83;;;13.00;66.20;;;;;;5068285;28;20197;-67
2023/04/22 05:52:51;;;;;;;3.37;1.90;;;13.10;66.30;;;;;;5065410;28;20280;-67
2023/04/22 05:55:19;;;;;;;1.50;1.40;;;13.10;66.40;;;;;;5065549;28;20606;-67
2023/04/22 05:57:46;;;;;;;2.07;1.50;;;13.20;66.40;;;;;;5084272;28;21000;-67
2023/04/22 06:00:33;;;;;;;1.50;1.20;;;13.20;66.30;;;;;;5059269;28;20305;-67
2023/04/22 06:03:21;;;;;;;3.97;1.50;;;13.30;66.20;;;;;;5066419;28;20428;-66
2023/04/22 06:05:48;;;;;;;2.90;1.47;;;13.40;66.20;;;;;;5066878;28;20679;-66
2023/04/22 06:08:18;;;;;;;1.20;1.10;;;13.50;66.20;;;;;;5081278;28;20248;-67
2023/04/22 06:10:45;;;;;;;3.23;1.00;;;13.50;65.90;;;;;;5083304;28;20195;-67
2023/04/22 06:13:12;;;;;;;2.77;1.47;;;13.60;65.70;;;;;;5076252;28;20293;-67
2023/04/22 06:15:39;;;;;;;3.17;1.10;;;13.60;65.40;;;;;;5087839;28;20190;-66
2023/04/22 06:18:07;;;;;;;1.37;1.20;;;13.70;65.40;;;;;;5072582;28;20199;-66
2023/04/22 06:20:34;;;;;;;3.20;1.40;;;13.70;65.00;;;;;;5091270;28;20190;-66
2023/04/22 06:23:04;;;;;;;4.50;1.50;;;13.80;64.70;;;;;;5065379;28;20550;-66
2023/04/22 06:25:32;;;;;;;2.13;1.40;;;13.90;64.50;;;;;;5069982;28;20238;-66
2023/04/22 06:28:00;;;;;;;1.43;1.17;;;13.90;64.20;;;;;;5065035;28;20221;-66
2023/04/22 06:30:30;;;;;;;1.60;1.20;;;13.90;63.90;;;;;;5082045;28;20302;-66
2023/04/22 06:32:57;;;;;;;1.90;0.80;;;14.00;64.00;;;;;;5070590;28;20656;-66
2023/04/22 06:35:26;;;;;;;1.23;0.83;;;14.00;64.10;;;;;;5069952;28;20686;-66
2023/04/22 06:37:55;;;;;;;1.77;0.87;;;14.10;64.20;;;;;;5067846;28;20214;-66
2023/04/22 06:40:25;;;;;;;4.77;0.90;;;14.10;64.00;;;;;;5073072;28;20221;-66
2023/04/22 06:43:19;;;;;;;1.43;0.90;;;14.20;64.00;;;;;;5075281;28;20674;-66
2023/04/22 06:46:25;;;;;;;1.73;1.00;;;14.30;63.80;;;;;;4968097;28;20273;-66
2023/04/22 06:48:52;;;;;;;5.47;1.10;;;14.40;63.70;;;;;;4962481;28;20206;-65
2023/04/22 06:51:38;;;;;;;1.73;1.27;;;14.40;63.50;;;;;;5035625;28;20223;-65
2023/04/22 06:54:07;;;;;;;3.80;0.90;;;14.40;63.40;;;;;;5073215;28;20206;-66
2023/04/22 06:56:34;;;;;;;3.53;1.37;;;14.50;63.60;;;;;;5068791;28;20215;-66
2023/04/22 06:59:03;;;;;;;4.07;1.10;;;14.60;63.70;;;;;;5080025;28;20262;-66
2023/04/22 07:01:30;;;;;;;4.03;1.30;;;14.60;63.70;;;;;;5068443;28;20218;-66
2023/04/22 07:03:58;;;;;;;4.57;1.50;;;14.70;63.70;;;;;;5068408;28;20217;-67
2023/04/22 07:06:25;;;;;;;2.90;1.80;;;14.80;63.90;;;;;;5088254;28;20573;-67
2023/04/22 07:08:52;;;;;;;3.47;1.20;;;14.80;63.60;;;;;;5073260;28;20303;-66
2023/04/22 07:11:20;;;;;;;4.20;1.00;;;14.90;63.60;;;;;;5079224;28;20670;-66
2023/04/22 07:14:02;;;;;;;2.27;1.10;;;15.00;63.50;;;;;;5069948;28;20222;-66
2023/04/22 07:16:29;;;;;;;3.60;1.33;;;15.00;63.30;;;;;;5068717;28;20204;-67
2023/04/22 07:18:58;;;;;;;2.63;1.00;;;15.10;63.20;;;;;;5069336;28;20793;-66
2023/04/22 07:21:25;;;;;;;1.20;0.90;;;15.20;63.20;;;;;;5080875;28;20282;-67
2023/04/22 07:23:52;;;;;;;0.60;0.60;;;15.20;63.10;;;;;;5084873;28;20200;-66
2023/04/22 07:26:20;;;;;;;0.60;0.60;;;15.30;62.90;;;;;;5083416;28;20267;-66
2023/04/22 07:28:47;;;;;;;3.40;1.03;;;15.30;62.60;;;;;;5086808;28;20696;-66
2023/04/22 07:31:15;;;;;;;1.23;0.80;;;15.40;62.60;;;;;;5094946;28;20191;-67
2023/04/22 07:33:42;;;;;;;0.93;0.80;;;15.50;62.50;;;;;;5088443;28;20207;-67
2023/04/22 07:36:09;;;;;;;6.83;1.13;;;15.60;62.60;;;;;;5097314;28;20608;-66
2023/04/22 07:38:36;;;;;;;2.10;1.00;;;15.70;62.60;;;;;;5083270;28;20201;-67
2023/04/22 07:41:04;;;;;;;0.57;0.57;;;15.70;62.50;;;;;;5090892;28;20195;-67
2023/04/22 07:43:31;;;;;;;1.80;1.00;;;15.80;62.50;;;;;;5088205;28;20594;-67
2023/04/22 07:45:58;;;;;;;0.80;0.80;;;15.90;62.40;;;;;;5086451;28;20215;-66
2023/04/22 07:48:26;;;;;;;0.70;0.70;;;15.90;62.30;;;;;;5086879;28;20211;-67
2023/04/22 07:50:53;;;;;;;1.43;0.70;;;16.00;62.40;;;;;;5068146;28;20496;-67
2023/04/22 07:53:20;;;;;;;0.87;0.87;;;16.10;62.40;;;;;;5077253;28;20200;-67
2023/04/22 07:55:48;;;;;;;0.97;0.90;;;16.20;63.10;;;;;;5084705;28;20257;-67
2023/04/22 07:58:15;;;;;;;1.20;0.70;;;16.30;62.20;;;;;;5058995;28;20216;-67
2023/04/22 08:00:43;;;;;;;2.50;0.90;;;16.30;62.10;;;;;;5071824;28;20200;-67
2023/04/22 08:03:10;;;;;;;2.40;1.23;;;16.40;62.10;;;;;;5089617;28;20192;-67
2023/04/22 08:05:38;;;;;;;1.13;1.00;;;16.50;62.10;;;;;;5080491;28;20253;-67
2023/04/22 08:08:05;;;;;;;3.73;1.17;;;16.10;61.60;;;;;;5079945;28;20320;-67
2023/04/22 08:10:33;;;;;;;0.80;0.80;;;16.70;62.20;;;;;;5087107;28;20342;-67
2023/04/22 08:13:00;;;;;;;0.90;0.87;;;16.70;62.10;;;;;;5088110;28;20279;-67
2023/04/22 08:15:27;;;;;;;0.90;0.90;;;16.80;62.90;;;;;;5079552;28;20223;-68
2023/04/22 08:17:54;;;;;;;0.60;0.60;;;16.90;62.20;;;;;;5081196;28;20553;-67
2023/04/22 08:20:21;;;;;;;5.10;1.27;;;17.00;62.20;;;;;;5074234;28;20277;-67
2023/04/22 08:22:52;;;;;;;1.77;0.87;;;17.00;62.10;;;;;;5070489;28;20303;-67
2023/04/22 08:25:19;;;;;;;1.37;0.80;;;17.00;62.10;;;;;;5084479;28;20250;-67
2023/04/22 08:27:46;;;;;;;0.77;0.70;;;17.10;62.20;;;;;;5088946;28;20261;-67
2023/04/22 08:30:14;;;;;;;1.83;0.63;;;17.20;62.20;;;;;;5090022;28;20193;-67
2023/04/22 08:32:41;;;;;;;1.43;0.70;;;17.30;62.30;;;;;;5083034;28;20208;-67
2023/04/22 08:35:09;;;;;;;1.00;0.97;;;17.40;62.20;;;;;;5076929;28;20256;-67
2023/04/22 08:37:36;;;;;;;1.23;0.70;;;17.50;62.10;;;;;;5085879;28;20215;-67
2023/04/22 08:40:05;;;;;;;2.53;0.90;;;17.60;62.30;;;;;;5083965;28;20207;-67
2023/04/22 08:42:33;;;;;;;0.77;0.70;;;17.70;62.20;;;;;;5080004;28;20642;-67
2023/04/22 08:45:02;;;;;;;2.40;0.80;;;17.80;62.20;;;;;;5084227;28;20184;-67
2023/04/22 08:47:29;;;;;;;0.60;0.60;;;17.80;62.10;;;;;;5065205;28;20205;-67
2023/04/22 08:49:57;;;;;;;0.50;0.50;;;17.90;62.20;;;;;;5071643;28;20224;-67
2023/04/22 08:52:24;;;;;;;0.60;0.60;;;18.00;62.10;;;;;;5081054;28;20204;-67
2023/04/22 08:54:51;;;;;;;0.77;0.50;;;18.10;62.00;;;;;;5078072;28;20204;-67
2023/04/22 08:57:20;;;;;;;1.07;0.50;;;18.10;61.80;;;;;;5083459;28;20202;-66
2023/04/22 08:59:49;;;;;;;0.60;0.60;;;18.20;61.80;;;;;;5078838;28;20199;-67
2023/04/22 09:02:19;;;;;;;0.80;0.57;;;18.30;61.90;;;;;;5070475;28;20627;-67
2023/04/22 09:04:48;;;;;;;0.70;0.70;;;18.40;61.80;;;;;;5082753;28;20199;-67
2023/04/22 09:07:22;;;;;;;0.52;0.50;;;18.50;61.70;;;;;;5085164;28;20230;-67
2023/04/22 09:09:49;;;;;;;3.00;0.90;;;18.60;61.60;;;;;;5070502;28;20202;-67
2023/04/22 09:12:18;;;;;;;6.22;0.90;;;18.70;61.50;;;;;;5083833;28;20252;-67
2023/04/22 09:14:46;;;;;;;0.60;0.60;;;18.80;61.30;;;;;;5082319;28;20716;-67
2023/04/22 09:17:16;;;;;;;1.13;0.70;;;18.80;60.90;;;;;;5086152;28;20200;-67
2023/04/22 09:19:44;;;;;;;0.70;0.70;;;18.90;61.10;;;;;;5083296;28;20281;-67
2023/04/22 09:22:13;;;;;;;0.60;0.60;;;18.90;61.10;;;;;;5086641;28;20199;-67
2023/04/22 09:24:43;;;;;;;0.57;0.57;;;19.00;60.90;;;;;;5092549;28;20752;-67
2023/04/22 09:27:11;;;;;;;1.60;0.80;;;19.00;60.90;;;;;;5067303;28;20192;-66
2023/04/22 09:29:38;;;;;;;0.80;0.80;;;19.10;60.80;;;;;;5084449;28;20263;-66
2023/04/22 09:32:11;;;;;;;2.60;1.30;;;19.10;60.40;;;;;;5079339;28;20216;-66
2023/04/22 09:34:49;;;;;;;1.40;0.90;;;19.10;59.70;;;;;;5080889;28;20224;-66
2023/04/22 09:37:19;;;;;;;1.08;1.00;;;19.00;59.80;;;;;;5081996;28;20203;-66
2023/04/22 09:39:48;;;;;;;0.85;0.85;;;18.90;60.10;;;;;;5068814;28;20222;-66
2023/04/22 09:42:15;;;;;;;0.80;0.80;;;19.00;60.50;;;;;;5076566;28;20196;-66
2023/04/22 09:44:44;;;;;;;0.50;0.50;;;19.10;60.70;;;;;;5066912;28;20204;-67
2023/04/22 09:47:13;;;;;;;3.83;1.33;;;19.20;60.90;;;;;;5077257;28;20554;-66
2023/04/22 09:49:40;;;;;;;2.00;1.08;;;19.30;60.40;;;;;;5080393;28;20199;-66
2023/04/22 09:52:07;;;;;;;3.17;0.70;;;19.40;60.60;;;;;;5082765;28;20285;-66
2023/04/22 09:54:37;;;;;;;0.68;0.68;;;19.40;60.60;;;;;;5084357;28;20307;-66
2023/04/22 09:57:04;;;;;;;0.90;0.90;;;19.50;60.60;;;;;;5082450;28;20645;-66
2023/04/22 09:59:31;;;;;;;0.63;0.63;;;19.70;60.70;;;;;;5081251;28;20271;-66
2023/04/22 10:02:02;;;;;;;0.60;0.60;;;19.80;60.50;;;;;;5080697;28;20871;-66
2023/04/22 10:04:31;;;;;;;0.43;0.43;;;19.90;59.80;;;;;;5088066;28;20195;-65
2023/04/22 10:06:58;;;;;;;0.70;0.70;;;19.90;59.80;;;;;;5084949;28;20334;-65
2023/04/22 10:09:25;;;;;;;0.57;0.57;;;20.00;60.00;;;;;;5089428;28;20673;-65
2023/04/22 10:11:54;;;;;;;0.50;0.50;;;20.10;59.90;;;;;;5095147;28;20188;-66
2023/04/22 10:14:22;;;;;;;1.17;0.63;;;20.10;59.80;;;;;;5082432;28;20545;-66
2023/04/22 10:16:52;;;;;;;0.50;0.50;;;20.20;59.80;;;;;;5076448;28;20197;-66
2023/04/22 10:19:22;;;;;;;0.55;0.55;;;20.30;59.80;;;;;;5067501;28;20341;-66
2023/04/22 10:22:00;;;;;;;0.60;0.60;;;20.40;59.70;;;;;;5076776;28;20196;-66
2023/04/22 10:24:28;;;;;;;0.60;0.60;;;20.50;59.60;;;;;;5086212;28;20220;-66
2023/04/22 10:26:57;;;;;;;0.52;0.52;;;20.50;59.50;;;;;;5074603;28;20545;-66
2023/04/22 10:29:26;;;;;;;0.52;0.52;;;20.50;59.60;;;;;;5066917;28;20197;-66
2023/04/22 10:31:57;;;;;;;0.50;0.50;;;20.60;59.60;;;;;;5086903;28;20639;-66
2023/04/22 10:34:24;;;;;;;0.60;0.60;;;20.70;59.40;;;;;;5087632;28;20667;-66
2023/04/22 10:37:02;;;;;;;0.50;0.50;;;20.80;59.30;;;;;;5079320;28;20192;-66
2023/04/22 10:39:29;;;;;;;0.55;0.55;;;20.90;59.30;;;;;;5088200;28;20188;-65
2023/04/22 10:42:10;;;;;;;0.80;0.70;;;20.90;58.80;;;;;;5078194;28;20193;-65
2023/04/22 10:44:48;;;;;;;0.70;0.70;;;20.80;58.40;;;;;;5081937;28;20224;-65
2023/04/22 10:47:25;;;;;;;0.80;0.80;;;20.80;57.90;;;;;;5068269;28;20623;-67
2023/04/22 10:50:08;;;;;;;0.98;0.70;;;20.80;58.00;;;;;;5085400;28;20239;-66
2023/04/22 10:52:37;;;;;;;0.63;0.50;;;20.90;58.00;;;;;;5085771;28;20250;-65
2023/04/22 10:55:05;;;;;;;0.85;0.57;;;20.90;58.10;;;;;;5084552;28;20258;-66
2023/04/22 10:57:38;;;;;;;0.43;0.43;;;20.90;58.20;;;;;;5068264;28;20216;-66
2023/04/22 11:00:30;;;;;;;0.55;0.55;;;20.90;58.30;;;;;;5085394;28;20215;-66
2023/04/22 11:03:13;;;;;;;1.25;0.68;;;21.10;58.30;;;;;;5075822;28;20208;-66
2023/04/22 11:05:40;;;;;;;0.57;0.57;;;21.20;57.70;;;;;;5089361;28;20193;-66
2023/04/22 11:08:13;;;;;;;0.60;0.60;;;21.20;57.60;;;;;;5091087;28;20289;-66
2023/04/22 11:10:42;;;;;;;0.65;0.60;;;21.20;57.70;;;;;;5082578;28;20197;-66
2023/04/22 11:13:12;;;;;;;0.60;0.60;;;21.30;57.90;;;;;;5083352;28;20355;-66
2023/04/22 11:15:41;;;;;;;1.30;0.70;;;21.30;57.90;;;;;;5075495;28;20188;-66
2023/04/22 11:18:10;;;;;;;0.70;0.70;;;21.40;57.60;;;;;;5081595;28;20617;-66
2023/04/22 11:20:38;;;;;;;1.20;0.75;;;21.40;57.40;;;;;;5079638;28;20192;-66
2023/04/22 11:23:05;;;;;;;0.73;0.70;;;21.40;57.30;;;;;;5082729;28;20189;-66
2023/04/22 11:25:34;;;;;;;0.90;0.90;;;21.40;57.40;;;;;;5090984;28;20193;-66
2023/04/22 11:28:01;;;;;;;1.08;0.95;;;21.40;56.60;;;;;;5089725;28;20188;-66
2023/04/22 11:30:30;;;;;;;0.80;0.80;;;21.40;56.60;;;;;;5082128;28;20319;-66
2023/04/22 11:32:59;;;;;;;0.60;0.60;;;21.40;56.80;;;;;;5069028;28;20257;-66
2023/04/22 11:35:31;;;;;;;0.60;0.60;;;21.50;56.90;;;;;;5085356;28;20647;-65
2023/04/22 11:38:01;;;;;;;1.00;1.00;;;21.60;57.60;;;;;;5082321;28;20204;-65
2023/04/22 11:40:30;;;;;;;0.88;0.88;;;21.60;56.40;;;;;;5090337;28;20246;-65
2023/04/22 11:42:59;;;;;;;1.45;0.90;;;21.60;56.20;;;;;;5089627;28;20196;-65
2023/04/22 11:45:27;;;;;;;1.13;1.10;;;21.60;56.10;;;;;;5081750;28;20188;-66
2023/04/22 11:47:54;;;;;;;1.20;1.10;;;21.60;56.10;;;;;;5089251;28;20242;-66
2023/04/22 11:50:23;;;;;;;2.50;1.10;;;21.70;56.10;;;;;;5089844;28;20299;-66
2023/04/22 11:52:52;;;;;;;1.13;1.10;;;21.70;55.40;;;;;;5075595;28;20656;-66
2023/04/22 11:55:26;;;;;;;0.70;0.70;;;21.70;55.40;;;;;;5067436;28;20555;-66
2023/04/22 11:57:56;;;;;;;1.05;0.90;;;21.70;55.60;;;;;;5084374;28;20212;-66
2023/04/22 12:00:28;;;;;;;1.15;0.98;;;21.80;55.40;;;;;;5086295;28;20240;-66
2023/04/22 12:02:59;;;;;;;1.05;0.98;;;21.80;54.60;;;;;;5088294;28;20556;-66
2023/04/22 12:05:37;;;;;;;0.88;0.88;;;21.70;53.90;;;;;;5083846;28;20197;-66
2023/04/22 12:08:06;;;;;;;1.38;0.98;;;21.70;54.30;;;;;;5078280;28;20641;-66
2023/04/22 12:10:33;;;;;;;2.72;0.90;;;21.70;54.30;;;;;;5088218;28;20286;-66
2023/04/22 12:13:01;;;;;;;4.88;1.05;;;21.70;53.80;;;;;;5077314;28;20246;-66
2023/04/22 12:15:39;;;;;;;1.15;0.70;;;21.60;53.20;;;;;;5085476;28;20200;-66
2023/04/22 12:18:07;;;;;;;0.80;0.60;;;21.50;53.00;;;;;;5089213;28;20275;-66
2023/04/22 12:20:34;;;;;;;0.70;0.70;;;21.50;53.70;;;;;;5092745;28;20196;-66
2023/04/22 12:23:02;;;;;;;1.20;0.90;;;21.50;53.20;;;;;;5088642;28;20284;-67
2023/04/22 12:25:29;;;;;;;0.88;0.88;;;21.40;52.90;;;;;;5089906;28;20200;-67
2023/04/22 12:27:56;;;;;;;0.80;0.80;;;21.40;53.10;;;;;;5065411;28;20839;-67
2023/04/22 12:30:24;;;;;;;0.75;0.70;;;21.40;52.60;;;;;;5090154;28;20192;-66
2023/04/22 12:32:52;;;;;;;2.05;0.80;;;21.40;52.70;;;;;;5088796;28;20212;-66
2023/04/22 12:35:19;;;;;;;0.73;0.70;;;21.50;53.10;;;;;;5081601;28;20296;-65
2023/04/22 12:37:46;;;;;;;1.27;0.60;;;21.50;54.00;;;;;;5085179;28;20200;-67
2023/04/22 12:40:13;;;;;;;1.05;0.80;;;21.60;53.70;;;;;;5089888;28;20193;-66
2023/04/22 12:42:40;;;;;;;1.02;0.80;;;21.60;53.80;;;;;;5078919;28;20188;-66
2023/04/22 12:45:09;;;;;;;6.60;1.00;;;21.60;53.50;;;;;;5083280;28;20560;-66
2023/04/22 12:47:36;;;;;;;3.10;1.05;;;21.60;52.70;;;;;;5077013;28;20300;-65
2023/04/22 12:50:06;;;;;;;1.23;1.13;;;21.60;53.00;;;;;;5089948;28;20237;-66
2023/04/22 12:52:34;;;;;;;1.08;0.98;;;21.60;53.10;;;;;;5108635;28;20652;-66
2023/04/22 12:55:02;;;;;;;2.08;1.20;;;21.60;53.10;;;;;;5089939;28;20219;-66
2023/04/22 12:57:29;;;;;;;0.70;0.70;;;21.60;52.70;;;;;;5084399;28;20257;-67